createdAt,value
2023-04-22T00:03:44.644Z,11.42
2023-04-22T00:08:46.510Z,11.66
2023-04-22T00:13:47.983Z,11.17
2023-04-22T00:18:49.497Z,11.22
2023-04-22T00:23:50.943Z,11.19
2023-04-22T00:28:52.447Z,10.72
2023-04-22T00:33:53.994Z,10.85
2023-04-22T00:38:55.488Z,10.50
2023-04-22T00:43:59.631Z,10.72
2023-04-22T00:49:02.385Z,10.10
2023-04-22T00:54:04.729Z,10.68
2023-04-22T00:59:08.752Z,10.92
2023-04-22T01:04:12.812Z,10.98
2023-04-22T01:09:14.794Z,10.76
2023-04-22T01:14:16.484Z,10.57
2023-04-22T01:19:18.059Z,9.68
2023-04-22T01:24:19.725Z,9.84
2023-04-22T01:29:21.300Z,9.30
2023-04-22T01:34:22.809Z,10.46
2023-04-22T01:39:24.541Z,10.72
2023-04-22T01:44:26.928Z,11.16
2023-04-22T01:49:28.398Z,9.83
2023-04-22T01:54:30.011Z,10.02
2023-04-22T01:59:31.523Z,10.02
2023-04-22T02:04:33.088Z,10.19
2023-04-22T02:09:35.157Z,9.79
2023-04-22T02:14:36.668Z,9.82
2023-04-22T02:19:38.689Z,10.40
2023-04-22T02:24:40.550Z,10.48
2023-04-22T02:29:42.612Z,10.74
2023-04-22T02:34:44.242Z,11.06
2023-04-22T02:39:45.806Z,11.26
2023-04-22T02:44:47.268Z,11.46
2023-04-22T02:49:48.761Z,11.50
2023-04-22T02:54:50.304Z,11.61
2023-04-22T02:59:51.850Z,11.46
2023-04-22T03:04:55.126Z,10.96
2023-04-22T03:09:56.839Z,10.31
2023-04-22T03:14:58.938Z,10.63
2023-04-22T03:20:04.870Z,10.94
2023-04-22T03:25:07.050Z,11.34
2023-04-22T03:30:09.475Z,10.44
2023-04-22T03:35:11.155Z,10.54
2023-04-22T03:40:13.792Z,11.07
2023-04-22T03:45:15.971Z,11.09
2023-04-22T03:50:21.855Z,11.00
2023-04-22T03:55:25.494Z,11.13
2023-04-22T04:00:28.942Z,10.99
2023-04-22T04:05:41.853Z,10.92
2023-04-22T04:10:43.996Z,11.27
2023-04-22T04:15:46.229Z,10.97
2023-04-22T04:20:50.909Z,11.33
2023-04-22T04:25:52.844Z,11.35
2023-04-22T04:30:54.585Z,11.32
2023-04-22T04:35:59.140Z,11.55
2023-04-22T04:41:10.718Z,11.53
2023-04-22T04:46:13.986Z,11.38
2023-04-22T04:51:17.543Z,11.72
2023-04-22T04:56:26.451Z,11.69
2023-04-22T05:01:28.779Z,11.49
2023-04-22T05:06:36.157Z,11.78
2023-04-22T05:11:39.529Z,11.78
2023-04-22T05:16:48.374Z,11.34
2023-04-22T05:21:50.370Z,12.13
2023-04-22T05:26:52.557Z,11.79
2023-04-22T05:31:55.314Z,12.04
2023-04-22T05:36:57.779Z,11.82
2023-04-22T05:42:00.840Z,12.21
2023-04-22T05:47:03.162Z,12.13
2023-04-22T05:52:05.307Z,12.44
2023-04-22T05:57:17.945Z,12.32
2023-04-22T06:02:19.826Z,12.81
2023-04-22T06:07:21.512Z,12.53
2023-04-22T06:12:22.971Z,13.08
2023-04-22T06:17:24.679Z,13.13
2023-04-22T06:22:30.818Z,12.57
2023-04-22T06:27:32.285Z,13.31
2023-04-22T06:32:33.874Z,13.46
2023-04-22T06:37:35.445Z,13.41
2023-04-22T06:42:39.453Z,13.96
2023-04-22T06:47:59.510Z,14.16
2023-04-22T06:53:11.590Z,14.06
2023-04-22T06:58:13.099Z,13.55
2023-04-22T07:03:14.710Z,15.17
2023-04-22T07:08:17.158Z,15.08
2023-04-22T07:13:18.935Z,14.82
2023-04-22T07:18:20.681Z,15.71
2023-04-22T07:23:22.168Z,16.00
2023-04-22T07:28:23.672Z,16.27
2023-04-22T07:33:25.197Z,17.08
2023-04-22T07:38:26.680Z,17.33
2023-04-22T07:43:28.208Z,17.52
2023-04-22T07:48:29.685Z,17.98
2023-04-22T07:53:31.163Z,18.30
2023-04-22T07:58:32.718Z,17.05
2023-04-22T08:03:34.386Z,18.54
2023-04-22T08:08:36.067Z,18.98
2023-04-22T08:13:37.613Z,17.53
2023-04-22T08:18:39.139Z,18.67
2023-04-22T08:23:40.666Z,18.28
2023-04-22T08:28:42.585Z,17.71
2023-04-22T08:33:44.027Z,18.42
2023-04-22T08:38:45.932Z,19.41
2023-04-22T08:43:49.151Z,19.12
2023-04-22T08:48:51.037Z,18.30
2023-04-22T08:53:52.632Z,18.75
2023-04-22T08:58:54.861Z,17.91
2023-04-22T09:03:59.880Z,18.48
2023-04-22T09:09:01.880Z,19.45
2023-04-22T09:14:04.587Z,19.51
2023-04-22T09:19:06.050Z,19.92
2023-04-22T09:24:09.357Z,20.92
2023-04-22T09:29:14.940Z,20.92
2023-04-22T09:34:16.432Z,19.93
2023-04-22T09:39:18.010Z,20.36
2023-04-22T09:44:19.464Z,20.96
2023-04-22T09:49:21.238Z,21.00
2023-04-22T09:54:23.432Z,22.67
2023-04-22T09:59:28.219Z,22.14
2023-04-22T10:04:31.153Z,22.25
2023-04-22T10:09:33.075Z,21.55
2023-04-22T10:14:34.647Z,21.08
2023-04-22T10:19:36.842Z,21.45
2023-04-22T10:24:40.796Z,21.99
2023-04-22T10:29:43.458Z,21.99
2023-04-22T10:34:48.878Z,23.70
2023-04-22T10:40:16.657Z,21.67
2023-04-22T10:45:19.117Z,22.22
2023-04-22T10:50:28.539Z,22.72
2023-04-22T10:55:52.696Z,22.60
2023-04-22T11:01:02.951Z,22.23
2023-04-22T11:06:18.644Z,22.96
2023-04-22T11:11:20.561Z,23.68
2023-04-22T11:16:22.756Z,23.10
2023-04-22T11:21:24.834Z,22.62
2023-04-22T11:26:35.526Z,23.18
2023-04-22T11:31:37.121Z,23.66
2023-04-22T11:36:38.626Z,22.53
2023-04-22T11:41:41.555Z,22.02
2023-04-22T11:46:44.629Z,21.14
2023-04-22T11:51:56.426Z,21.91
2023-04-22T11:56:59.171Z,22.47
2023-04-22T12:02:04.522Z,21.83
2023-04-22T12:07:06.496Z,21.64
2023-04-22T12:12:08.025Z,21.51
2023-04-22T12:17:10.574Z,21.39
2023-04-22T12:22:12.077Z,20.78
2023-04-22T12:27:13.573Z,21.21
2023-04-22T12:32:15.043Z,21.67
2023-04-22T12:37:17.753Z,21.15
2023-04-22T12:42:19.222Z,22.96
2023-04-22T12:47:20.752Z,23.03
2023-04-22T12:52:22.207Z,22.10
2023-04-22T12:57:23.720Z,22.28
2023-04-22T13:02:25.881Z,21.77
2023-04-22T13:07:27.381Z,21.87
2023-04-22T13:12:28.955Z,22.41
2023-04-22T13:17:31.004Z,21.65
2023-04-22T13:22:33.591Z,21.95
2023-04-22T13:27:35.446Z,21.88
2023-04-22T13:32:37.244Z,22.19
2023-04-22T13:37:39.261Z,22.43
2023-04-22T13:42:40.785Z,21.14
2023-04-22T13:47:42.297Z,20.77
2023-04-22T13:52:44.013Z,21.43
2023-04-22T13:57:45.832Z,21.66
2023-04-22T14:02:47.432Z,21.32
2023-04-22T14:07:49.042Z,20.10
2023-04-22T14:12:50.898Z,19.41
2023-04-22T14:17:53.806Z,18.96
2023-04-22T14:22:55.972Z,18.35
2023-04-22T14:27:57.445Z,18.61
2023-04-22T14:32:58.987Z,18.29
2023-04-22T14:38:01.882Z,18.16
2023-04-22T14:43:05.630Z,18.04
2023-04-22T14:48:07.148Z,17.42
2023-04-22T14:53:08.682Z,17.25
2023-04-22T14:58:10.217Z,17.46
2023-04-22T15:03:11.783Z,17.95
2023-04-22T15:08:13.327Z,17.29
2023-04-22T15:13:14.939Z,17.63
2023-04-22T15:18:16.499Z,18.80
2023-04-22T15:23:18.003Z,18.32
2023-04-22T15:28:19.496Z,18.15
2023-04-22T15:33:21.124Z,18.85
2023-04-22T15:38:22.579Z,18.27
2023-04-22T15:43:24.060Z,17.81
2023-04-22T15:48:25.579Z,18.74
2023-04-22T15:53:27.042Z,18.01
2023-04-22T15:58:30.592Z,16.80
2023-04-22T16:03:34.088Z,16.49
2023-04-22T16:08:37.391Z,16.25
2023-04-22T16:13:38.975Z,16.52
2023-04-22T16:18:43.614Z,15.91
2023-04-22T16:23:46.073Z,16.07
2023-04-22T16:28:47.536Z,16.44
2023-04-22T16:33:50.348Z,16.39
2023-04-22T16:38:51.891Z,16.42
2023-04-22T16:43:53.407Z,16.31
2023-04-22T16:48:54.846Z,16.17
2023-04-22T16:53:56.507Z,16.06
2023-04-22T16:58:57.960Z,15.87
2023-04-22T17:03:59.696Z,16.40
2023-04-22T17:09:01.346Z,16.61
2023-04-22T17:14:03.399Z,16.07
2023-04-22T17:19:05.216Z,15.95
2023-04-22T17:24:07.261Z,15.95
2023-04-22T17:29:08.718Z,15.90
2023-04-22T17:34:10.342Z,16.28
2023-04-22T17:39:11.849Z,16.34
2023-04-22T17:44:13.646Z,15.92
2023-04-22T17:49:15.102Z,16.11
2023-04-22T17:54:16.733Z,15.95
2023-04-22T17:59:18.759Z,16.30
2023-04-22T18:04:20.295Z,16.29
2023-04-22T18:09:21.952Z,16.05
2023-04-22T18:14:23.522Z,16.28
2023-04-22T18:19:24.973Z,16.30
2023-04-22T18:24:26.498Z,16.61
2023-04-22T18:29:27.963Z,16.80
2023-04-22T18:34:29.540Z,16.15
2023-04-22T18:39:31.137Z,16.16
2023-04-22T18:44:32.707Z,15.45
2023-04-22T18:49:34.226Z,15.20
2023-04-22T18:54:36.099Z,15.36
2023-04-22T18:59:37.726Z,15.52
2023-04-22T19:04:39.855Z,15.05
2023-04-22T19:09:41.551Z,15.20
2023-04-22T19:14:43.237Z,15.09
2023-04-22T19:19:45.440Z,15.29
2023-04-22T19:24:48.131Z,15.25
2023-04-22T19:29:51.701Z,15.30
2023-04-22T19:34:53.200Z,14.98
2023-04-22T19:39:54.678Z,14.87
2023-04-22T19:44:58.924Z,14.59
2023-04-22T19:50:00.707Z,14.39
2023-04-22T19:55:09.269Z,14.23
2023-04-22T20:00:14.079Z,13.73
2023-04-22T20:05:16.746Z,13.66
2023-04-22T20:10:19.065Z,13.49
2023-04-22T20:15:20.907Z,13.35
2023-04-22T20:20:23.808Z,13.21
2023-04-22T20:25:25.560Z,13.12
2023-04-22T20:30:27.293Z,12.90
2023-04-22T20:35:29.315Z,12.96
2023-04-22T20:40:32.928Z,12.98
2023-04-22T20:45:34.440Z,13.13
2023-04-22T20:50:35.910Z,13.09
2023-04-22T20:55:37.507Z,13.24
2023-04-22T21:00:39.021Z,13.25
2023-04-22T21:05:44.466Z,13.56
2023-04-22T21:10:47.768Z,12.98
2023-04-22T21:15:59.147Z,12.70
2023-04-22T21:21:04.647Z,12.99
2023-04-22T21:26:06.680Z,13.03
2023-04-22T21:31:08.456Z,13.01
2023-04-22T21:36:10.266Z,12.89
2023-04-22T21:41:11.754Z,13.13
2023-04-22T21:46:13.197Z,12.57
2023-04-22T21:51:14.680Z,11.88
2023-04-22T21:56:16.454Z,12.02
2023-04-22T22:01:17.914Z,11.67
2023-04-22T22:06:19.619Z,11.65
2023-04-22T22:11:30.427Z,11.76
2023-04-22T22:16:33.371Z,11.58
2023-04-22T22:21:35.025Z,11.81
2023-04-22T22:26:36.657Z,11.93
2023-04-22T22:31:38.133Z,11.96
2023-04-22T22:36:39.713Z,11.14
2023-04-22T22:41:43.601Z,10.39
2023-04-22T22:46:45.758Z,10.83
2023-04-22T22:51:47.268Z,11.75
2023-04-22T22:56:48.706Z,10.87
2023-04-22T23:01:50.533Z,10.89
2023-04-22T23:06:52.078Z,11.06
2023-04-22T23:11:55.285Z,11.17
2023-04-22T23:16:56.768Z,10.89
2023-04-22T23:21:58.870Z,10.66
2023-04-22T23:27:01.242Z,10.50
2023-04-22T23:32:05.420Z,10.61
2023-04-22T23:37:07.048Z,10.69
2023-04-22T23:42:08.572Z,11.20
2023-04-22T23:47:10.217Z,10.68
2023-04-22T23:52:12.904Z,10.91
2023-04-22T23:57:15.518Z,10.89
